createdAt,value
2019-04-26T00:00:31.656Z,983.21
2019-04-26T00:01:31.883Z,983.18
2019-04-26T00:02:32.118Z,983.16
2019-04-26T00:03:32.337Z,983.16
2019-04-26T00:04:32.563Z,983.16
2019-04-26T00:05:35.262Z,983.20
2019-04-26T00:06:33.017Z,983.15
2019-04-26T00:07:33.240Z,983.15
2019-04-26T00:08:33.467Z,983.17
2019-04-26T00:09:33.694Z,983.15
2019-04-26T00:10:33.911Z,983.10
2019-04-26T00:11:34.139Z,983.09
2019-04-26T00:12:34.365Z,983.08
2019-04-26T00:13:34.593Z,983.07
2019-04-26T00:14:34.818Z,983.04
2019-04-26T00:15:35.045Z,983.03
2019-04-26T00:16:35.273Z,983.02
2019-04-26T00:17:35.497Z,983.00
2019-04-26T00:18:35.725Z,983.01
2019-04-26T00:19:35.952Z,983.01
2019-04-26T00:20:36.176Z,982.95
2019-04-26T00:21:36.401Z,982.98
2019-04-26T00:22:36.625Z,982.99
2019-04-26T00:23:36.849Z,982.93
2019-04-26T00:24:37.078Z,982.92
2019-04-26T00:25:37.304Z,982.93
2019-04-26T00:26:37.534Z,982.96
2019-04-26T00:27:37.765Z,982.98
2019-04-26T00:28:37.989Z,983.02
2019-04-26T00:29:38.213Z,983.07
2019-04-26T00:30:38.443Z,983.08
2019-04-26T00:31:38.670Z,983.10
2019-04-26T00:32:38.892Z,983.07
2019-04-26T00:33:39.120Z,983.03
2019-04-26T00:34:39.354Z,983.03
2019-04-26T00:35:47.358Z,983.02
2019-04-26T00:36:39.802Z,983.00
2019-04-26T00:37:40.027Z,982.98
2019-04-26T00:38:40.255Z,983.01
2019-04-26T00:39:40.475Z,982.98
2019-04-26T00:40:40.701Z,983.01
2019-04-26T00:41:40.928Z,983.03
2019-04-26T00:42:41.157Z,983.02
2019-04-26T00:43:41.385Z,983.03
2019-04-26T00:44:41.612Z,983.00
2019-04-26T00:45:41.835Z,983.00
2019-04-26T00:46:42.064Z,982.96
2019-04-26T00:47:42.295Z,982.93
2019-04-26T00:48:42.518Z,982.90
2019-04-26T00:49:43.769Z,982.88
2019-04-26T00:50:42.973Z,982.87
2019-04-26T00:51:43.200Z,982.85
2019-04-26T00:52:43.509Z,982.88
2019-04-26T00:53:43.657Z,982.87
2019-04-26T00:54:43.885Z,982.89
2019-04-26T00:55:44.109Z,982.94
2019-04-26T00:56:44.333Z,982.99
2019-04-26T00:57:44.561Z,983.04
2019-04-26T00:58:44.788Z,983.05
2019-04-26T00:59:45.016Z,983.13
2019-04-26T01:00:45.242Z,983.21
2019-04-26T01:01:45.469Z,983.24
2019-04-26T01:02:45.692Z,983.28
2019-04-26T01:03:45.918Z,983.36
2019-04-26T01:04:46.129Z,983.34
2019-04-26T01:05:46.352Z,983.41
2019-04-26T01:06:46.579Z,983.44
2019-04-26T01:07:46.805Z,983.44
2019-04-26T01:08:47.033Z,983.51
2019-04-26T01:09:47.262Z,983.47
2019-04-26T01:10:47.479Z,983.45
2019-04-26T01:11:47.707Z,983.46
2019-04-26T01:12:47.929Z,983.46
2019-04-26T01:13:48.152Z,983.43
2019-04-26T01:14:48.375Z,983.43
2019-04-26T01:15:48.604Z,983.43
2019-04-26T01:16:48.832Z,983.47
2019-04-26T01:17:49.055Z,983.51
2019-04-26T01:18:49.278Z,983.57
2019-04-26T01:19:49.508Z,983.59
2019-04-26T01:20:49.731Z,983.58
2019-04-26T01:21:49.956Z,983.57
2019-04-26T01:22:50.182Z,983.57
2019-04-26T01:23:50.410Z,983.58
2019-04-26T01:24:50.636Z,983.58
2019-04-26T01:25:50.859Z,983.58
2019-04-26T01:26:51.079Z,983.57
2019-04-26T01:27:51.299Z,983.58
2019-04-26T01:28:51.526Z,983.57
2019-04-26T01:29:51.758Z,983.59
2019-04-26T01:30:51.982Z,983.57
2019-04-26T01:31:52.209Z,983.56
2019-04-26T01:32:52.435Z,983.55
2019-04-26T01:33:52.661Z,983.55
2019-04-26T01:34:52.884Z,983.51
2019-04-26T01:35:53.170Z,983.52
2019-04-26T01:36:53.334Z,983.53
2019-04-26T01:37:53.561Z,983.50
2019-04-26T01:38:53.790Z,983.52
2019-04-26T01:39:54.014Z,983.51
2019-04-26T01:40:54.238Z,983.54
2019-04-26T01:41:54.464Z,983.49
2019-04-26T01:42:54.681Z,983.57
2019-04-26T01:43:54.920Z,983.63
2019-04-26T01:44:55.129Z,983.67
2019-04-26T01:45:55.354Z,983.68
2019-04-26T01:46:55.578Z,983.68
2019-04-26T01:47:55.802Z,983.68
2019-04-26T01:48:56.030Z,983.71
2019-04-26T01:49:56.255Z,983.68
2019-04-26T01:50:56.482Z,983.67
2019-04-26T01:51:56.714Z,983.69
2019-04-26T01:52:56.939Z,983.66
2019-04-26T01:53:57.164Z,983.63
2019-04-26T01:54:57.391Z,983.65
2019-04-26T01:55:57.613Z,983.64
2019-04-26T01:56:57.837Z,983.68
2019-04-26T01:57:58.067Z,983.72
2019-04-26T01:58:58.293Z,983.77
2019-04-26T01:59:58.518Z,983.79
2019-04-26T02:00:58.746Z,983.85
2019-04-26T02:01:58.970Z,983.87
2019-04-26T02:02:59.194Z,983.90
2019-04-26T02:03:59.419Z,983.85
2019-04-26T02:04:59.644Z,983.85
2019-04-26T02:05:59.857Z,983.86
2019-04-26T02:07:00.077Z,983.86
2019-04-26T02:08:00.303Z,983.83
2019-04-26T02:09:00.530Z,983.80
2019-04-26T02:10:00.755Z,983.77
2019-04-26T02:11:00.981Z,983.82
2019-04-26T02:12:01.207Z,983.86
2019-04-26T02:13:01.423Z,983.89
2019-04-26T02:14:01.643Z,983.91
2019-04-26T02:15:01.868Z,983.92
2019-04-26T02:16:02.093Z,983.93
2019-04-26T02:17:02.320Z,983.93
2019-04-26T02:18:02.544Z,983.91
2019-04-26T02:19:02.769Z,983.90
2019-04-26T02:20:02.998Z,983.91
2019-04-26T02:21:03.225Z,983.88
2019-04-26T02:22:03.451Z,983.86
2019-04-26T02:23:03.672Z,983.83
2019-04-26T02:24:03.901Z,983.82
2019-04-26T02:25:04.127Z,983.83
2019-04-26T02:26:04.353Z,983.86
2019-04-26T02:27:04.581Z,983.90
2019-04-26T02:28:04.809Z,983.93
2019-04-26T02:29:05.032Z,984.01
2019-04-26T02:30:05.272Z,984.00
2019-04-26T02:31:05.489Z,984.00
2019-04-26T02:32:05.714Z,984.00
2019-04-26T02:33:05.936Z,983.99
2019-04-26T02:34:06.162Z,983.91
2019-04-26T02:35:06.387Z,983.81
2019-04-26T02:36:06.621Z,983.75
2019-04-26T02:37:06.836Z,983.69
2019-04-26T02:38:07.065Z,983.71
2019-04-26T02:39:07.291Z,983.73
2019-04-26T02:40:07.523Z,983.80
2019-04-26T02:41:07.747Z,983.88
2019-04-26T02:42:07.967Z,983.92
2019-04-26T02:43:08.195Z,983.98
2019-04-26T02:44:08.421Z,983.99
2019-04-26T02:45:08.647Z,984.02
2019-04-26T02:46:08.877Z,983.99
2019-04-26T02:47:09.135Z,983.98
2019-04-26T02:48:09.329Z,984.06
2019-04-26T02:49:09.551Z,984.10
2019-04-26T02:50:09.777Z,984.10
2019-04-26T02:51:10.001Z,984.14
2019-04-26T02:52:10.224Z,984.10
2019-04-26T02:53:10.453Z,984.02
2019-04-26T02:54:10.668Z,983.94
2019-04-26T02:55:10.896Z,983.89
2019-04-26T02:56:11.122Z,983.87
2019-04-26T02:57:11.347Z,983.87
2019-04-26T02:58:11.574Z,983.87
2019-04-26T02:59:13.702Z,983.90
2019-04-26T03:00:12.038Z,983.98
2019-04-26T03:01:12.262Z,983.98
2019-04-26T03:02:12.491Z,984.02
2019-04-26T03:03:12.714Z,983.97
2019-04-26T03:04:12.938Z,983.99
2019-04-26T03:05:13.164Z,984.03
2019-04-26T03:06:13.393Z,984.05
2019-04-26T03:07:13.614Z,984.00
2019-04-26T03:08:13.843Z,983.97
2019-04-26T03:09:14.069Z,983.92
2019-04-26T03:10:14.293Z,983.90
2019-04-26T03:11:17.207Z,983.86
2019-04-26T03:12:14.740Z,983.85
2019-04-26T03:13:14.966Z,983.89
2019-04-26T03:14:15.189Z,983.94
2019-04-26T03:15:15.417Z,983.96
2019-04-26T03:16:15.647Z,984.09
2019-04-26T03:17:15.869Z,984.06
2019-04-26T03:18:16.095Z,984.10
2019-04-26T03:19:16.329Z,984.14
2019-04-26T03:20:16.565Z,984.13
2019-04-26T03:21:16.776Z,984.13
2019-04-26T03:22:17.003Z,984.13
2019-04-26T03:23:17.233Z,984.16
2019-04-26T03:24:17.454Z,984.13
2019-04-26T03:25:17.679Z,984.18
2019-04-26T03:26:17.907Z,984.19
2019-04-26T03:27:18.128Z,984.19
2019-04-26T03:28:18.354Z,984.21
2019-04-26T03:29:18.587Z,984.21
2019-04-26T03:30:22.359Z,984.18
2019-04-26T03:31:19.355Z,984.17
2019-04-26T03:32:19.262Z,984.13
2019-04-26T03:33:19.582Z,984.18
2019-04-26T03:34:19.868Z,984.22
2019-04-26T03:35:19.942Z,984.28
2019-04-26T03:36:20.189Z,984.25
2019-04-26T03:37:21.708Z,984.26
2019-04-26T03:38:20.615Z,984.29
2019-04-26T03:39:20.841Z,984.33
2019-04-26T03:40:21.062Z,984.39
2019-04-26T03:41:21.308Z,984.48
2019-04-26T03:42:21.518Z,984.54
2019-04-26T03:43:21.740Z,984.55
2019-04-26T03:44:21.966Z,984.51
2019-04-26T03:45:22.194Z,984.49
2019-04-26T03:46:22.416Z,984.51
2019-04-26T03:47:22.641Z,984.49
2019-04-26T03:48:22.866Z,984.48
2019-04-26T03:49:23.102Z,984.46
2019-04-26T03:50:23.325Z,984.43
2019-04-26T03:51:23.545Z,984.46
2019-04-26T03:52:23.772Z,984.46
2019-04-26T03:53:24.023Z,984.49
2019-04-26T03:54:24.223Z,984.53
2019-04-26T03:55:24.452Z,984.59
2019-04-26T03:56:24.678Z,984.64
2019-04-26T03:57:24.897Z,984.74
2019-04-26T03:58:25.121Z,984.83
2019-04-26T03:59:25.353Z,984.89
2019-04-26T04:00:25.578Z,984.88
2019-04-26T04:01:25.799Z,984.80
2019-04-26T04:02:26.019Z,984.80
2019-04-26T04:03:26.966Z,984.70
2019-04-26T04:04:26.463Z,984.67
2019-04-26T04:05:26.689Z,984.61
2019-04-26T04:06:26.911Z,984.57
2019-04-26T04:07:37.203Z,984.58
2019-04-26T04:08:27.363Z,984.56
2019-04-26T04:09:27.587Z,984.49
2019-04-26T04:10:27.826Z,984.46
2019-04-26T04:11:28.075Z,984.40
2019-04-26T04:12:28.269Z,984.36
2019-04-26T04:13:28.493Z,984.32
2019-04-26T04:14:28.838Z,984.27
2019-04-26T04:15:28.945Z,984.25
2019-04-26T04:16:29.160Z,984.24
2019-04-26T04:17:29.388Z,984.20
2019-04-26T04:18:29.626Z,984.25
2019-04-26T04:19:29.835Z,984.35
2019-04-26T04:20:30.060Z,984.47
2019-04-26T04:21:30.291Z,984.63
2019-04-26T04:22:30.506Z,984.68
2019-04-26T04:23:30.735Z,984.75
2019-04-26T04:24:30.957Z,984.74
2019-04-26T04:25:31.180Z,984.69
2019-04-26T04:26:31.442Z,984.69
2019-04-26T04:27:31.632Z,984.70
2019-04-26T04:28:31.862Z,984.70
2019-04-26T04:29:43.037Z,984.60
2019-04-26T04:30:32.314Z,984.60
2019-04-26T04:31:32.537Z,984.59
2019-04-26T04:32:32.760Z,984.60
2019-04-26T04:33:32.987Z,984.59
2019-04-26T04:34:33.215Z,984.63
2019-04-26T04:35:33.441Z,984.69
2019-04-26T04:36:33.669Z,984.70
2019-04-26T04:37:33.895Z,984.72
2019-04-26T04:38:34.124Z,984.76
2019-04-26T04:39:34.369Z,984.82
2019-04-26T04:40:34.576Z,984.80
2019-04-26T04:41:34.800Z,984.82
2019-04-26T04:42:35.033Z,984.84
2019-04-26T04:43:35.253Z,984.81
2019-04-26T04:44:35.478Z,984.81
2019-04-26T04:45:35.760Z,984.80
2019-04-26T04:46:35.927Z,984.83
2019-04-26T04:47:36.157Z,984.94
2019-04-26T04:48:36.381Z,985.01
2019-04-26T04:49:36.610Z,985.09
2019-04-26T04:50:36.847Z,985.13
2019-04-26T04:51:37.064Z,985.19
2019-04-26T04:52:37.292Z,985.12
2019-04-26T04:53:37.518Z,985.01
2019-04-26T04:54:37.747Z,984.94
2019-04-26T04:55:37.977Z,984.93
2019-04-26T04:56:38.200Z,984.93
2019-04-26T04:57:38.429Z,984.88
2019-04-26T04:58:38.655Z,984.84
2019-04-26T04:59:38.883Z,984.81
2019-04-26T05:00:39.110Z,984.77
2019-04-26T05:01:39.340Z,984.81
2019-04-26T05:02:39.640Z,984.75
2019-04-26T05:03:39.798Z,984.76
2019-04-26T05:04:40.026Z,984.76
2019-04-26T05:05:40.255Z,984.79
2019-04-26T05:06:40.482Z,984.77
2019-04-26T05:07:40.710Z,984.78
2019-04-26T05:08:40.935Z,984.79
2019-04-26T05:09:41.163Z,984.80
2019-04-26T05:10:41.390Z,984.84
2019-04-26T05:11:41.617Z,984.90
2019-04-26T05:12:41.845Z,984.91
2019-04-26T05:13:42.074Z,984.87
2019-04-26T05:14:42.303Z,984.87
2019-04-26T05:15:42.531Z,984.81
2019-04-26T05:16:42.755Z,984.87
2019-04-26T05:17:42.987Z,984.87
2019-04-26T05:18:44.131Z,984.93
2019-04-26T05:19:44.225Z,984.98
2019-04-26T05:20:44.427Z,984.99
2019-04-26T05:21:45.342Z,985.03
2019-04-26T05:22:44.731Z,985.05
2019-04-26T05:23:44.621Z,985.03
2019-04-26T05:24:45.679Z,985.01
2019-04-26T05:25:45.131Z,985.00
2019-04-26T05:26:45.989Z,984.93
2019-04-26T05:27:46.770Z,984.96
2019-04-26T05:28:46.241Z,984.97
2019-04-26T05:29:46.587Z,984.98
2019-04-26T05:30:46.609Z,985.01
2019-04-26T05:31:48.666Z,984.97
2019-04-26T05:32:47.253Z,985.00
2019-04-26T05:33:47.781Z,985.01
2019-04-26T05:34:47.941Z,985.08
2019-04-26T05:35:47.377Z,985.14
2019-04-26T05:36:47.770Z,985.22
2019-04-26T05:37:48.314Z,985.32
2019-04-26T05:38:47.951Z,985.32
2019-04-26T05:39:49.136Z,985.34
2019-04-26T05:40:48.736Z,985.32
2019-04-26T05:41:49.546Z,985.29
2019-04-26T05:42:49.749Z,985.29
2019-04-26T05:43:50.138Z,985.31
2019-04-26T05:44:49.799Z,985.33
2019-04-26T05:45:50.369Z,985.40
2019-04-26T05:46:50.616Z,985.41
2019-04-26T05:48:02.975Z,985.37
2019-04-26T05:48:50.893Z,985.39
2019-04-26T05:49:50.380Z,985.36
2019-04-26T05:50:51.828Z,985.34
2019-04-26T05:51:51.949Z,985.30
2019-04-26T05:52:51.583Z,985.30
2019-04-26T05:53:51.149Z,985.30
2019-04-26T05:54:52.217Z,985.31
2019-04-26T05:55:52.283Z,985.29
2019-04-26T05:56:52.724Z,985.29
2019-04-26T05:57:52.624Z,985.30
2019-04-26T05:58:52.844Z,985.28
2019-04-26T05:59:53.461Z,985.30
2019-04-26T06:00:53.901Z,985.28
2019-04-26T06:01:53.301Z,985.28
2019-04-26T06:02:53.186Z,985.30
2019-04-26T06:03:54.310Z,985.33
2019-04-26T06:04:53.637Z,985.28
2019-04-26T06:05:54.387Z,985.29
2019-04-26T06:06:55.100Z,985.23
2019-04-26T06:07:54.314Z,985.25
2019-04-26T06:08:55.307Z,985.20
2019-04-26T06:09:54.769Z,985.20
2019-04-26T06:10:55.876Z,985.14
2019-04-26T06:11:55.225Z,985.15
2019-04-26T06:12:56.543Z,985.16
2019-04-26T06:13:55.737Z,985.17
2019-04-26T06:14:56.786Z,985.19
2019-04-26T06:15:56.129Z,985.19
2019-04-26T06:16:56.945Z,985.17
2019-04-26T06:17:57.284Z,985.14
2019-04-26T06:18:57.312Z,985.11
2019-04-26T06:19:57.330Z,985.13
2019-04-26T06:20:57.345Z,985.12
2019-04-26T06:21:57.934Z,985.16
2019-04-26T06:22:59.166Z,985.21
2019-04-26T06:23:57.955Z,985.23
2019-04-26T06:24:58.165Z,985.27
2019-04-26T06:26:01.396Z,985.28
2019-04-26T06:27:11.910Z,985.32
2019-04-26T06:27:58.860Z,985.29
2019-04-26T06:28:59.111Z,985.31
2019-04-26T06:29:59.296Z,985.32
2019-04-26T06:30:59.526Z,985.33
2019-04-26T06:32:00.481Z,985.34
2019-04-26T06:33:03.173Z,985.34
2019-04-26T06:34:00.944Z,985.41
2019-04-26T06:35:01.395Z,985.44
2019-04-26T06:36:01.680Z,985.44
2019-04-26T06:37:00.880Z,985.46
2019-04-26T06:38:01.838Z,985.40
2019-04-26T06:39:02.115Z,985.40
2019-04-26T06:40:02.228Z,985.38
2019-04-26T06:41:02.524Z,985.41
2019-04-26T06:42:02.897Z,985.38
2019-04-26T06:43:02.726Z,985.37
2019-04-26T06:44:02.747Z,985.40
2019-04-26T06:45:02.937Z,985.38
2019-04-26T06:46:02.920Z,985.43
2019-04-26T06:47:04.023Z,985.49
2019-04-26T06:48:03.965Z,985.54
2019-04-26T06:49:03.617Z,985.55
2019-04-26T06:50:03.829Z,985.58
2019-04-26T06:51:04.881Z,985.58
2019-04-26T06:52:05.076Z,985.57
2019-04-26T06:53:04.505Z,985.62
2019-04-26T06:54:05.564Z,985.61
2019-04-26T06:55:04.961Z,985.62
2019-04-26T06:56:05.192Z,985.56
2019-04-26T06:57:10.580Z,985.48
2019-04-26T06:58:05.645Z,985.51
2019-04-26T06:59:05.924Z,985.51
2019-04-26T07:00:06.667Z,985.53
2019-04-26T07:01:06.324Z,985.61
2019-04-26T07:02:06.550Z,985.68
2019-04-26T07:03:07.775Z,985.80
2019-04-26T07:04:07.010Z,985.83
2019-04-26T07:05:07.229Z,985.86
2019-04-26T07:06:07.454Z,985.88
2019-04-26T07:07:07.682Z,985.92
2019-04-26T07:08:09.057Z,985.93
2019-04-26T07:09:08.140Z,985.98
2019-04-26T07:10:08.368Z,985.99
2019-04-26T07:11:09.594Z,985.99
2019-04-26T07:12:08.824Z,986.02
2019-04-26T07:13:09.762Z,986.05
2019-04-26T07:14:09.274Z,986.04
2019-04-26T07:15:09.499Z,986.15
2019-04-26T07:16:19.681Z,986.18
2019-04-26T07:17:09.955Z,986.27
2019-04-26T07:18:10.763Z,986.28
2019-04-26T07:19:11.208Z,986.27
2019-04-26T07:20:11.599Z,986.28
2019-04-26T07:21:10.866Z,986.28
2019-04-26T07:22:11.087Z,986.31
2019-04-26T07:23:11.319Z,986.28
2019-04-26T07:24:11.542Z,986.32
2019-04-26T07:25:11.769Z,986.33
2019-04-26T07:26:11.998Z,986.35
2019-04-26T07:27:13.132Z,986.34
2019-04-26T07:28:12.588Z,986.42
2019-04-26T07:29:12.684Z,986.44
2019-04-26T07:30:12.925Z,986.45
2019-04-26T07:31:13.294Z,986.36
2019-04-26T07:32:13.362Z,986.39
2019-04-26T07:33:13.589Z,986.40
2019-04-26T07:34:13.816Z,986.39
2019-04-26T07:35:14.045Z,986.36
2019-04-26T07:36:14.270Z,986.35
2019-04-26T07:37:14.498Z,986.33
2019-04-26T07:38:14.727Z,986.35
2019-04-26T07:39:20.064Z,986.29
2019-04-26T07:40:15.190Z,986.28
2019-04-26T07:41:15.408Z,986.33
2019-04-26T07:42:15.637Z,986.28
2019-04-26T07:43:15.860Z,986.33
2019-04-26T07:44:16.102Z,986.30
2019-04-26T07:45:16.315Z,986.32
2019-04-26T07:46:16.543Z,986.32
2019-04-26T07:47:16.773Z,986.27
2019-04-26T07:48:17.001Z,986.31
2019-04-26T07:49:17.228Z,986.33
2019-04-26T07:50:17.459Z,986.27
2019-04-26T07:51:17.684Z,986.29
2019-04-26T07:52:17.913Z,986.31
2019-04-26T07:53:18.141Z,986.25
2019-04-26T07:54:18.371Z,986.28
2019-04-26T07:55:18.601Z,986.27
2019-04-26T07:56:18.827Z,986.28
2019-04-26T07:57:19.054Z,986.34
2019-04-26T07:58:19.285Z,986.32
2019-04-26T07:59:19.517Z,986.31
2019-04-26T08:00:19.746Z,986.39
2019-04-26T08:01:19.977Z,986.40
2019-04-26T08:02:20.203Z,986.43
2019-04-26T08:03:20.430Z,986.47
2019-04-26T08:04:20.656Z,986.48
2019-04-26T08:05:20.886Z,986.47
2019-04-26T08:06:21.114Z,986.48
2019-04-26T08:07:21.343Z,986.51
2019-04-26T08:08:21.571Z,986.58
2019-04-26T08:09:26.728Z,986.54
2019-04-26T08:10:22.025Z,986.57
2019-04-26T08:11:22.256Z,986.52
2019-04-26T08:12:22.478Z,986.50
2019-04-26T08:13:22.708Z,986.43
2019-04-26T08:14:22.936Z,986.43
2019-04-26T08:15:24.946Z,986.46
2019-04-26T08:16:23.393Z,986.46
2019-04-26T08:17:23.618Z,986.49
2019-04-26T08:18:23.849Z,986.49
2019-04-26T08:19:24.075Z,986.58
2019-04-26T08:20:24.304Z,986.59
2019-04-26T08:21:24.530Z,986.60
2019-04-26T08:22:28.654Z,986.58
2019-04-26T08:23:38.402Z,986.61
2019-04-26T08:24:27.993Z,986.58
2019-04-26T08:25:25.447Z,986.56
2019-04-26T08:26:26.361Z,986.56
2019-04-26T08:27:25.904Z,986.57
2019-04-26T08:28:26.133Z,986.56
2019-04-26T08:29:26.363Z,986.56
2019-04-26T08:30:26.591Z,986.58
2019-04-26T08:31:27.492Z,986.62
2019-04-26T08:32:28.151Z,986.63
2019-04-26T08:33:27.272Z,986.65
2019-04-26T08:34:29.741Z,986.68
2019-04-26T08:35:27.729Z,986.67
2019-04-26T08:36:28.694Z,986.68
2019-04-26T08:37:28.186Z,986.73
2019-04-26T08:38:28.418Z,986.77
2019-04-26T08:39:44.258Z,986.78
2019-04-26T08:40:31.220Z,986.81
2019-04-26T08:41:29.096Z,986.80
2019-04-26T08:42:29.324Z,986.84
2019-04-26T08:43:30.774Z,986.87
2019-04-26T08:44:29.780Z,986.85
2019-04-26T08:45:30.004Z,986.81
2019-04-26T08:46:32.278Z,986.79
2019-04-26T08:47:30.461Z,986.78
2019-04-26T08:48:30.688Z,986.78
2019-04-26T08:49:30.926Z,986.76
2019-04-26T08:50:31.144Z,986.72
2019-04-26T08:51:31.373Z,986.74
2019-04-26T08:52:31.602Z,986.75
2019-04-26T08:53:31.829Z,986.75
2019-04-26T08:54:32.698Z,986.83
2019-04-26T08:55:32.284Z,986.87
2019-04-26T08:56:32.514Z,986.86
2019-04-26T08:57:32.739Z,986.88
2019-04-26T08:58:32.969Z,986.93
2019-04-26T08:59:33.197Z,986.90
2019-04-26T09:00:33.427Z,986.98
2019-04-26T09:01:33.652Z,987.03
2019-04-26T09:02:33.887Z,987.04
2019-04-26T09:03:34.109Z,987.05
2019-04-26T09:04:34.334Z,987.05
2019-04-26T09:05:34.616Z,986.98
2019-04-26T09:06:34.792Z,987.04
2019-04-26T09:07:36.380Z,987.03
2019-04-26T09:08:35.245Z,987.03
2019-04-26T09:09:35.473Z,987.10
2019-04-26T09:10:39.338Z,987.03
2019-04-26T09:11:35.929Z,987.01
2019-04-26T09:12:36.153Z,987.01
2019-04-26T09:13:36.383Z,987.02
2019-04-26T09:14:36.614Z,987.04
2019-04-26T09:15:36.842Z,987.13
2019-04-26T09:16:49.650Z,987.12
2019-04-26T09:17:37.298Z,987.16
2019-04-26T09:18:43.479Z,987.16
2019-04-26T09:19:37.751Z,987.13
2019-04-26T09:20:38.565Z,987.18
2019-04-26T09:21:38.255Z,987.21
2019-04-26T09:22:38.436Z,987.18
2019-04-26T09:23:40.251Z,987.22
2019-04-26T09:24:38.896Z,987.21
2019-04-26T09:25:39.489Z,987.21
2019-04-26T09:26:42.605Z,987.18
2019-04-26T09:27:39.575Z,987.17
2019-04-26T09:28:39.822Z,987.13
2019-04-26T09:29:40.053Z,987.14
2019-04-26T09:30:42.306Z,987.17
2019-04-26T09:31:40.510Z,987.19
2019-04-26T09:32:40.735Z,987.17
2019-04-26T09:33:40.961Z,987.21
2019-04-26T09:34:41.622Z,987.22
2019-04-26T09:35:41.416Z,987.19
2019-04-26T09:36:41.643Z,987.22
2019-04-26T09:37:41.871Z,987.24
2019-04-26T09:38:42.109Z,987.21
2019-04-26T09:39:43.417Z,987.18
2019-04-26T09:40:42.553Z,987.22
2019-04-26T09:41:42.780Z,987.20
2019-04-26T09:42:43.012Z,987.20
2019-04-26T09:43:43.239Z,987.22
2019-04-26T09:44:43.469Z,987.24
2019-04-26T09:45:43.695Z,987.20
2019-04-26T09:46:44.420Z,987.22
2019-04-26T09:47:44.147Z,987.18
2019-04-26T09:48:44.375Z,987.22
2019-04-26T09:49:44.603Z,987.16
2019-04-26T09:50:44.833Z,987.23
2019-04-26T09:51:45.061Z,987.21
2019-04-26T09:52:45.288Z,987.24
2019-04-26T09:53:45.516Z,987.18
2019-04-26T09:54:45.745Z,987.19
2019-04-26T09:55:45.971Z,987.20
2019-04-26T09:56:46.198Z,987.21
2019-04-26T09:57:46.427Z,987.22
2019-04-26T09:58:46.657Z,987.20
2019-04-26T09:59:46.886Z,987.22
2019-04-26T10:00:48.609Z,987.28
2019-04-26T10:01:47.339Z,987.32
2019-04-26T10:02:47.567Z,987.33
2019-04-26T10:03:47.796Z,987.37
2019-04-26T10:04:48.024Z,987.39
2019-04-26T10:05:48.255Z,987.44
2019-04-26T10:06:48.482Z,987.49
2019-04-26T10:07:48.711Z,987.52
2019-04-26T10:08:48.939Z,987.52
2019-04-26T10:09:51.823Z,987.51
2019-04-26T10:10:51.594Z,987.46
2019-04-26T10:11:49.637Z,987.47
2019-04-26T10:12:49.852Z,987.43
2019-04-26T10:13:50.080Z,987.40
2019-04-26T10:14:50.305Z,987.39
2019-04-26T10:15:50.533Z,987.36
2019-04-26T10:16:50.764Z,987.34
2019-04-26T10:17:51.164Z,987.37
2019-04-26T10:18:54.456Z,987.37
2019-04-26T10:19:51.447Z,987.35
2019-04-26T10:20:51.672Z,987.42
2019-04-26T10:21:51.901Z,987.42
2019-04-26T10:22:52.129Z,987.46
2019-04-26T10:23:52.358Z,987.47
2019-04-26T10:24:52.586Z,987.45
2019-04-26T10:25:53.649Z,987.49
2019-04-26T10:26:55.391Z,987.48
2019-04-26T10:27:53.269Z,987.55
2019-04-26T10:28:53.498Z,987.53
2019-04-26T10:29:56.622Z,987.54
2019-04-26T10:30:53.955Z,987.50
2019-04-26T10:31:54.184Z,987.51
2019-04-26T10:32:54.411Z,987.51
2019-04-26T10:33:54.640Z,987.50
2019-04-26T10:34:54.878Z,987.48
2019-04-26T10:35:56.610Z,987.50
2019-04-26T10:36:56.983Z,987.47
2019-04-26T10:37:55.561Z,987.49
2019-04-26T10:38:58.427Z,987.45
2019-04-26T10:39:56.017Z,987.45
2019-04-26T10:40:56.246Z,987.47
2019-04-26T10:41:56.478Z,987.47
2019-04-26T10:42:56.705Z,987.50
2019-04-26T10:43:56.935Z,987.49
2019-04-26T10:44:57.163Z,987.52
2019-04-26T10:45:57.391Z,987.52
2019-04-26T10:46:59.889Z,987.53
2019-04-26T10:47:57.845Z,987.52
2019-04-26T10:49:08.203Z,987.55
2019-04-26T10:49:59.251Z,987.54
2019-04-26T10:50:58.558Z,987.52
2019-04-26T10:51:58.786Z,987.54
2019-04-26T10:52:59.001Z,987.53
2019-04-26T10:54:01.729Z,987.52
2019-04-26T10:54:59.461Z,987.51
2019-04-26T10:55:59.687Z,987.55
2019-04-26T10:56:59.918Z,987.56
2019-04-26T10:58:00.141Z,987.54
2019-04-26T10:59:00.365Z,987.55
2019-04-26T11:00:00.598Z,987.58
2019-04-26T11:01:00.820Z,987.55
2019-04-26T11:02:01.048Z,987.52
2019-04-26T11:03:04.545Z,987.54
2019-04-26T11:04:01.559Z,987.50
2019-04-26T11:05:01.736Z,987.50
2019-04-26T11:06:01.958Z,987.47
2019-04-26T11:07:03.444Z,987.47
2019-04-26T11:08:02.417Z,987.46
2019-04-26T11:09:02.647Z,987.46
2019-04-26T11:10:03.105Z,987.44
2019-04-26T11:11:03.110Z,987.48
2019-04-26T11:12:03.333Z,987.45
2019-04-26T11:13:03.577Z,987.48
2019-04-26T11:14:03.788Z,987.43
2019-04-26T11:15:06.159Z,987.48
2019-04-26T11:16:07.057Z,987.48
2019-04-26T11:17:04.466Z,987.51
2019-04-26T11:18:04.695Z,987.48
2019-04-26T11:19:04.924Z,987.47
2019-04-26T11:20:06.308Z,987.48
2019-04-26T11:21:05.384Z,987.48
2019-04-26T11:22:05.614Z,987.49
2019-04-26T11:23:08.224Z,987.45
2019-04-26T11:24:06.075Z,987.45
2019-04-26T11:25:06.297Z,987.49
2019-04-26T11:26:06.567Z,987.48
2019-04-26T11:27:09.732Z,987.43
2019-04-26T11:28:06.989Z,987.48
2019-04-26T11:29:07.209Z,987.47
2019-04-26T11:30:11.632Z,987.52
2019-04-26T11:31:07.671Z,987.52
2019-04-26T11:32:07.916Z,987.51
2019-04-26T11:33:11.192Z,987.50
2019-04-26T11:34:08.373Z,987.45
2019-04-26T11:35:08.613Z,987.44
2019-04-26T11:36:08.986Z,987.42
2019-04-26T11:37:09.057Z,987.46
2019-04-26T11:38:09.285Z,987.42
2019-04-26T11:39:09.528Z,987.43
2019-04-26T11:40:10.212Z,987.42
2019-04-26T11:41:09.972Z,987.39
2019-04-26T11:42:11.725Z,987.43
2019-04-26T11:43:10.441Z,987.43
2019-04-26T11:44:10.676Z,987.44
2019-04-26T11:45:14.641Z,987.48
2019-04-26T11:46:11.164Z,987.51
2019-04-26T11:47:11.450Z,987.51
2019-04-26T11:48:11.681Z,987.59
2019-04-26T11:49:11.909Z,987.64
2019-04-26T11:50:12.402Z,987.62
2019-04-26T11:51:12.381Z,987.61
2019-04-26T11:52:12.591Z,987.63
2019-04-26T11:53:12.821Z,987.59
2019-04-26T11:54:13.120Z,987.57
2019-04-26T11:55:14.898Z,987.60
2019-04-26T11:56:13.450Z,987.62
2019-04-26T11:57:13.697Z,987.61
2019-04-26T11:58:13.911Z,987.67
2019-04-26T11:59:14.150Z,987.69
2019-04-26T12:00:14.376Z,987.68
2019-04-26T12:01:14.615Z,987.65
2019-04-26T12:02:16.135Z,987.68
2019-04-26T12:03:15.061Z,987.68
2019-04-26T12:04:15.299Z,987.74
2019-04-26T12:05:15.526Z,987.75
2019-04-26T12:06:15.754Z,987.81
2019-04-26T12:07:15.981Z,987.80
2019-04-26T12:08:16.226Z,987.87
2019-04-26T12:09:16.428Z,987.91
2019-04-26T12:10:16.657Z,987.95
2019-04-26T12:11:18.587Z,987.95
2019-04-26T12:12:17.124Z,987.96
2019-04-26T12:13:17.383Z,987.97
2019-04-26T12:14:20.367Z,987.94
2019-04-26T12:15:29.696Z,987.95
2019-04-26T12:16:18.802Z,987.97
2019-04-26T12:17:18.273Z,987.90
2019-04-26T12:18:18.544Z,987.91
2019-04-26T12:19:19.841Z,987.95
2019-04-26T12:20:22.460Z,988.01
2019-04-26T12:21:19.183Z,988.00
2019-04-26T12:22:19.411Z,988.05
2019-04-26T12:23:21.635Z,988.05
2019-04-26T12:24:19.872Z,988.04
2019-04-26T12:25:20.094Z,988.03
2019-04-26T12:26:21.794Z,988.00
2019-04-26T12:27:20.596Z,987.98
2019-04-26T12:28:20.771Z,987.97
2019-04-26T12:29:20.999Z,988.00
2019-04-26T12:30:26.189Z,988.07
2019-04-26T12:31:21.452Z,988.12